createdAt,value
2019-03-12T00:01:18.023Z,2.60
2019-03-12T00:03:21.898Z,2.70
2019-03-12T00:05:25.772Z,2.60
2019-03-12T00:07:29.631Z,2.60
2019-03-12T00:09:33.549Z,2.60
2019-03-12T00:11:37.374Z,2.50
2019-03-12T00:13:41.218Z,2.60
2019-03-12T00:15:45.061Z,2.50
2019-03-12T00:17:49.041Z,2.50
2019-03-12T00:19:52.912Z,2.50
2019-03-12T00:21:56.770Z,2.50
2019-03-12T00:24:00.667Z,2.50
2019-03-12T00:26:04.507Z,2.50
2019-03-12T00:28:08.348Z,2.50
2019-03-12T00:30:12.464Z,2.50
2019-03-12T00:32:16.307Z,2.50
2019-03-12T00:34:20.186Z,2.50
2019-03-12T00:36:24.050Z,2.50
2019-03-12T00:38:27.891Z,2.50
2019-03-12T00:40:31.749Z,2.50
2019-03-12T00:42:35.613Z,2.50
2019-03-12T00:44:39.601Z,2.60
2019-03-12T00:46:43.438Z,2.60
2019-03-12T00:48:47.290Z,2.60
2019-03-12T00:50:51.122Z,2.60
2019-03-12T00:52:55.027Z,2.70
2019-03-12T00:54:58.907Z,2.70
2019-03-12T00:57:02.784Z,2.70
2019-03-12T00:59:06.698Z,2.70
2019-03-12T01:01:10.487Z,2.70
2019-03-12T01:03:14.415Z,2.70
2019-03-12T01:05:18.340Z,2.80
2019-03-12T01:07:22.198Z,2.80
2019-03-12T01:09:26.101Z,2.80
2019-03-12T01:11:29.942Z,2.80
2019-03-12T01:13:33.779Z,2.80
2019-03-12T01:15:37.665Z,2.80
2019-03-12T01:17:41.539Z,2.80
2019-03-12T01:19:45.400Z,2.80
2019-03-12T01:21:49.263Z,2.80
2019-03-12T01:23:53.150Z,2.80
2019-03-12T01:25:57.025Z,2.80
2019-03-12T01:28:00.868Z,2.70
2019-03-12T01:30:10.202Z,2.70
2019-03-12T01:32:14.091Z,2.70
2019-03-12T01:34:17.968Z,2.70
2019-03-12T01:36:21.832Z,2.70
2019-03-12T01:38:25.746Z,2.70
2019-03-12T01:40:29.699Z,2.60
2019-03-12T01:42:33.544Z,2.70
2019-03-12T01:44:37.510Z,2.70
2019-03-12T01:46:41.616Z,2.70
2019-03-12T01:48:45.525Z,2.70
2019-03-12T01:50:49.511Z,2.60
2019-03-12T01:52:53.372Z,2.60
2019-03-12T01:54:57.258Z,2.60
2019-03-12T01:57:01.144Z,2.60
2019-03-12T01:59:05.151Z,2.60
2019-03-12T02:01:22.972Z,2.60
2019-03-12T02:03:26.833Z,2.60
2019-03-12T02:05:30.686Z,2.60
2019-03-12T02:07:34.565Z,2.60
2019-03-12T02:09:38.461Z,2.60
2019-03-12T02:11:42.295Z,2.60
2019-03-12T02:13:46.164Z,2.60
2019-03-12T02:15:50.021Z,2.60
2019-03-12T02:17:53.818Z,2.60
2019-03-12T02:19:57.677Z,2.60
2019-03-12T02:22:01.538Z,2.60
2019-03-12T02:24:05.369Z,2.60
2019-03-12T02:26:09.194Z,2.60
2019-03-12T02:28:13.054Z,2.60
2019-03-12T02:30:21.228Z,2.60
2019-03-12T02:32:25.058Z,2.60
2019-03-12T02:34:28.944Z,2.60
2019-03-12T02:36:32.805Z,2.60
2019-03-12T02:38:36.697Z,2.70
2019-03-12T02:40:40.615Z,2.60
2019-03-12T02:42:44.507Z,2.70
2019-03-12T02:44:48.444Z,2.70
2019-03-12T02:46:52.369Z,2.70
2019-03-12T02:48:56.303Z,2.70
2019-03-12T02:51:00.200Z,2.70
2019-03-12T02:53:04.117Z,2.70
2019-03-12T02:55:09.193Z,2.70
2019-03-12T02:57:13.388Z,2.70
2019-03-12T02:59:17.382Z,2.80
2019-03-12T03:01:21.243Z,2.70
2019-03-12T03:03:25.108Z,2.70
2019-03-12T03:05:28.990Z,2.70
2019-03-12T03:07:52.466Z,2.80
2019-03-12T03:09:55.579Z,2.70
2019-03-12T03:11:59.410Z,2.70
2019-03-12T03:14:03.336Z,2.70
2019-03-12T03:16:07.220Z,2.80
2019-03-12T03:18:11.144Z,2.80
2019-03-12T03:20:15.000Z,2.70
2019-03-12T03:22:18.863Z,2.70
2019-03-12T03:24:22.666Z,2.70
2019-03-12T03:26:26.523Z,2.70
2019-03-12T03:28:30.379Z,2.70
2019-03-12T03:30:34.246Z,2.80
2019-03-12T03:32:38.111Z,2.70
2019-03-12T03:34:41.979Z,2.70
2019-03-12T03:36:45.891Z,2.80
2019-03-12T03:38:49.805Z,2.70
2019-03-12T03:40:53.803Z,2.80
2019-03-12T03:42:57.737Z,2.70
2019-03-12T03:45:01.607Z,2.70
2019-03-12T03:47:05.457Z,2.70
2019-03-12T03:49:09.372Z,2.70
2019-03-12T03:51:13.163Z,2.80
2019-03-12T03:53:17.097Z,2.70
2019-03-12T03:55:22.036Z,2.70
2019-03-12T03:57:25.898Z,2.70
2019-03-12T03:59:29.758Z,2.70
2019-03-12T04:01:33.645Z,2.80
2019-03-12T04:03:37.522Z,2.70
2019-03-12T04:05:41.392Z,2.70
2019-03-12T04:07:45.263Z,2.70
2019-03-12T04:09:49.136Z,2.70
2019-03-12T04:11:52.970Z,2.70
2019-03-12T04:13:56.831Z,2.70
2019-03-12T04:16:01.062Z,2.70
2019-03-12T04:18:04.932Z,2.70
2019-03-12T04:20:10.902Z,2.70
2019-03-12T04:22:14.764Z,2.70
2019-03-12T04:24:18.621Z,2.70
2019-03-12T04:26:22.499Z,2.70
2019-03-12T04:28:26.340Z,2.70
2019-03-12T04:30:30.499Z,2.70
2019-03-12T04:32:34.382Z,2.70
2019-03-12T04:34:38.253Z,2.60
2019-03-12T04:36:42.138Z,2.60
2019-03-12T04:38:46.017Z,2.60
2019-03-12T04:40:50.026Z,2.60
2019-03-12T04:42:53.906Z,2.60
2019-03-12T04:44:57.748Z,2.60
2019-03-12T04:47:01.564Z,2.60
2019-03-12T04:49:05.437Z,2.50
2019-03-12T04:51:09.325Z,2.50
2019-03-12T04:53:13.170Z,2.50
2019-03-12T04:55:17.236Z,2.50
2019-03-12T04:57:21.127Z,2.50
2019-03-12T04:59:24.939Z,2.50
2019-03-12T05:01:28.839Z,2.50
2019-03-12T05:03:32.731Z,2.60
2019-03-12T05:05:36.606Z,2.60
2019-03-12T05:07:40.514Z,2.50
2019-03-12T05:09:44.460Z,2.50
2019-03-12T05:11:48.298Z,2.50
2019-03-12T05:14:17.984Z,2.50
2019-03-12T05:16:22.358Z,2.50
2019-03-12T05:18:26.194Z,2.40
2019-03-12T05:20:30.018Z,2.40
2019-03-12T05:22:33.933Z,2.40
2019-03-12T05:24:37.906Z,2.40
2019-03-12T05:26:41.767Z,2.40
2019-03-12T05:28:45.634Z,2.50
2019-03-12T05:30:49.530Z,2.50
2019-03-12T05:32:53.470Z,2.50
2019-03-12T05:34:57.385Z,2.50
2019-03-12T05:37:01.261Z,2.50
2019-03-12T05:39:06.828Z,2.50
2019-03-12T05:41:12.370Z,2.50
2019-03-12T05:43:16.225Z,2.50
2019-03-12T05:45:20.098Z,2.50
2019-03-12T05:47:23.910Z,2.50
2019-03-12T05:49:27.811Z,2.50
2019-03-12T05:51:31.695Z,2.50
2019-03-12T05:53:41.211Z,2.50
2019-03-12T05:55:45.127Z,2.50
2019-03-12T05:57:48.987Z,2.50
2019-03-12T05:59:52.844Z,2.60
2019-03-12T06:01:56.753Z,2.60
2019-03-12T06:04:00.613Z,2.60
2019-03-12T06:06:04.470Z,2.60
2019-03-12T06:08:08.378Z,2.60
2019-03-12T06:10:16.662Z,2.70
2019-03-12T06:12:20.496Z,2.70
2019-03-12T06:14:24.374Z,2.80
2019-03-12T06:16:28.264Z,2.80
2019-03-12T06:18:32.123Z,2.80
2019-03-12T06:20:36.035Z,2.80
2019-03-12T06:22:39.891Z,2.80
2019-03-12T06:24:43.736Z,2.80
2019-03-12T06:26:47.506Z,2.80
2019-03-12T06:28:51.344Z,2.80
2019-03-12T06:31:12.006Z,2.80
2019-03-12T06:33:23.977Z,2.80
2019-03-12T06:35:33.398Z,2.90
2019-03-12T06:37:41.849Z,2.90
2019-03-12T06:39:53.035Z,3.00
2019-03-12T06:41:58.498Z,3.00
2019-03-12T06:44:03.903Z,3.00
2019-03-12T06:46:25.967Z,3.00
2019-03-12T06:48:31.425Z,3.10
2019-03-12T06:50:39.666Z,3.10
2019-03-12T06:52:56.958Z,3.10
2019-03-12T06:55:08.319Z,3.20
2019-03-12T06:57:22.682Z,3.20
2019-03-12T06:59:44.417Z,3.20
2019-03-12T07:01:49.903Z,3.30
2019-03-12T07:04:01.027Z,3.30
2019-03-12T07:06:18.773Z,3.30
2019-03-12T07:08:26.940Z,3.30
2019-03-12T07:10:35.149Z,3.30
2019-03-12T07:12:55.711Z,3.30
2019-03-12T07:15:04.081Z,3.30
2019-03-12T07:17:26.614Z,3.30
2019-03-12T07:19:48.595Z,3.30
2019-03-12T07:21:57.082Z,3.30
2019-03-12T07:24:18.669Z,3.30
2019-03-12T07:26:39.331Z,3.30
2019-03-12T07:28:50.973Z,3.30
2019-03-12T07:30:56.854Z,3.40
2019-03-12T07:33:11.437Z,3.40
2019-03-12T07:35:33.619Z,3.50
2019-03-12T07:37:39.058Z,3.60
2019-03-12T07:39:44.539Z,3.60
2019-03-12T07:42:07.252Z,3.60
2019-03-12T07:44:15.997Z,3.70
2019-03-12T07:46:33.691Z,3.70
2019-03-12T07:48:55.587Z,3.70
2019-03-12T07:51:07.131Z,3.80
2019-03-12T07:53:21.167Z,3.80
2019-03-12T07:55:29.955Z,3.90
2019-03-12T07:57:44.168Z,3.90
2019-03-12T07:59:52.643Z,4.00
2019-03-12T08:01:58.095Z,4.00
2019-03-12T08:04:15.406Z,4.00
2019-03-12T08:06:20.810Z,4.00
2019-03-12T08:08:41.201Z,4.10
2019-03-12T08:10:49.519Z,4.00
2019-03-12T08:13:03.975Z,4.00
2019-03-12T08:15:30.211Z,4.00
2019-03-12T08:17:35.662Z,4.00
2019-03-12T08:19:41.074Z,4.10
2019-03-12T08:21:49.956Z,4.20
2019-03-12T08:24:13.913Z,4.20
2019-03-12T08:26:22.486Z,4.30
2019-03-12T08:28:40.342Z,4.20
2019-03-12T08:30:48.762Z,4.20
2019-03-12T08:33:03.252Z,4.30
2019-03-12T08:35:11.407Z,4.40
2019-03-12T08:37:33.241Z,4.50
2019-03-12T08:39:38.727Z,4.60
2019-03-12T08:41:50.355Z,4.50
2019-03-12T08:44:04.976Z,4.40
2019-03-12T08:46:22.325Z,4.50
2019-03-12T08:48:38.356Z,4.60
2019-03-12T08:50:46.831Z,4.60
2019-03-12T08:52:54.988Z,4.60
2019-03-12T08:55:04.272Z,4.60
2019-03-12T08:57:22.111Z,4.60
2019-03-12T08:59:30.700Z,4.50
2019-03-12T09:01:44.108Z,4.70
2019-03-12T09:04:05.597Z,4.80
2019-03-12T09:06:11.057Z,5.00
2019-03-12T09:08:32.723Z,4.90
2019-03-12T09:10:38.127Z,4.90
2019-03-12T09:12:52.411Z,5.00
2019-03-12T09:14:57.903Z,5.00
2019-03-12T09:17:19.823Z,5.10
2019-03-12T09:19:28.191Z,5.10
2019-03-12T09:21:42.898Z,5.20
2019-03-12T09:23:48.321Z,5.30
2019-03-12T09:26:02.692Z,5.20
2019-03-12T09:28:19.753Z,5.30
2019-03-12T09:30:43.567Z,5.50
2019-03-12T09:32:54.887Z,5.60
2019-03-12T09:35:00.462Z,5.60
2019-03-12T09:37:21.074Z,5.60
2019-03-12T09:39:26.635Z,5.60
2019-03-12T09:41:48.565Z,5.40
2019-03-12T09:43:56.994Z,5.50
2019-03-12T09:46:14.737Z,5.50
2019-03-12T09:48:36.436Z,5.50
2019-03-12T09:50:41.912Z,5.60
2019-03-12T09:52:56.376Z,5.60
2019-03-12T09:55:07.582Z,5.80
2019-03-12T09:57:16.035Z,5.90
2019-03-12T09:59:37.850Z,6.10
2019-03-12T10:01:43.257Z,6.20
2019-03-12T10:04:03.777Z,6.20
2019-03-12T10:06:09.242Z,6.20
2019-03-12T10:08:14.647Z,6.20
2019-03-12T10:10:20.082Z,6.20
2019-03-12T10:12:31.543Z,6.30
2019-03-12T10:14:53.360Z,6.20
2019-03-12T10:17:10.872Z,6.20
2019-03-12T10:19:16.422Z,6.20
2019-03-12T10:21:24.865Z,6.10
2019-03-12T10:23:36.417Z,6.10
2019-03-12T10:25:47.643Z,6.20
2019-03-12T10:28:02.021Z,6.20
2019-03-12T10:30:26.302Z,6.10
2019-03-12T10:32:31.754Z,6.10
2019-03-12T10:34:37.477Z,6.10
2019-03-12T10:36:42.899Z,6.20
2019-03-12T10:39:30.744Z,6.20
2019-03-12T10:41:39.127Z,6.20
2019-03-12T10:43:43.466Z,6.20
2019-03-12T10:45:48.959Z,6.20
2019-03-12T10:47:54.549Z,6.20
2019-03-12T10:49:58.377Z,6.20
2019-03-12T10:52:02.222Z,6.20
2019-03-12T10:54:06.111Z,6.30
2019-03-12T10:56:09.906Z,6.30
2019-03-12T10:58:13.794Z,6.30
2019-03-12T11:00:19.671Z,6.10
2019-03-12T11:02:23.466Z,6.10
2019-03-12T11:04:27.330Z,6.10
2019-03-12T11:06:31.219Z,6.20
2019-03-12T11:08:35.073Z,6.20
2019-03-12T11:10:38.945Z,6.20
2019-03-12T11:12:42.831Z,6.20
2019-03-12T11:14:46.704Z,6.20
2019-03-12T11:16:50.562Z,6.30
2019-03-12T11:18:54.496Z,6.40
2019-03-12T11:20:58.863Z,6.60
2019-03-12T11:23:03.018Z,6.60
2019-03-12T11:25:07.693Z,6.60
2019-03-12T11:27:11.550Z,6.80
2019-03-12T11:29:15.423Z,6.90
2019-03-12T11:31:19.266Z,6.90
2019-03-12T11:33:23.167Z,6.80
2019-03-12T11:35:37.896Z,6.80
2019-03-12T11:37:32.533Z,6.90
2019-03-12T11:39:36.402Z,7.00
2019-03-12T11:41:40.318Z,6.90
2019-03-12T11:43:44.158Z,6.90
2019-03-12T11:45:47.990Z,7.00
2019-03-12T11:47:51.890Z,7.00
2019-03-12T11:49:55.951Z,6.90
2019-03-12T11:51:59.926Z,7.20
2019-03-12T11:54:03.878Z,7.60
2019-03-12T11:56:07.982Z,8.00
2019-03-12T11:58:11.818Z,7.80
2019-03-12T12:00:25.495Z,7.60
2019-03-12T12:02:29.334Z,7.40
2019-03-12T12:04:33.191Z,7.30
2019-03-12T12:06:42.342Z,7.30
2019-03-12T12:08:42.487Z,7.30
2019-03-12T12:10:46.413Z,7.20
2019-03-12T12:12:50.378Z,7.20
2019-03-12T12:14:54.234Z,7.30
2019-03-12T12:16:58.114Z,7.20
2019-03-12T12:19:01.983Z,7.40
2019-03-12T12:21:05.900Z,7.60
2019-03-12T12:23:10.086Z,7.80
2019-03-12T12:25:18.251Z,7.90
2019-03-12T12:27:22.107Z,8.20
2019-03-12T12:29:25.998Z,8.30
2019-03-12T12:31:29.843Z,8.30
2019-03-12T12:33:33.848Z,8.20
2019-03-12T12:35:37.695Z,8.30
2019-03-12T12:37:41.611Z,8.20
2019-03-12T12:39:45.458Z,8.30
2019-03-12T12:41:49.323Z,8.40
2019-03-12T12:43:53.485Z,8.50
2019-03-12T12:45:57.664Z,8.60
2019-03-12T12:48:01.510Z,8.60
2019-03-12T12:50:07.524Z,8.70
2019-03-12T12:52:11.379Z,8.90
2019-03-12T12:54:15.251Z,8.80
2019-03-12T12:56:19.178Z,8.70
2019-03-12T12:58:23.061Z,8.50
2019-03-12T13:00:30.393Z,8.40
2019-03-12T13:02:34.246Z,8.50
2019-03-12T13:04:38.071Z,8.40
2019-03-12T13:06:41.973Z,8.40
2019-03-12T13:08:45.840Z,8.40
2019-03-12T13:10:49.689Z,8.30
2019-03-12T13:12:53.685Z,8.30
2019-03-12T13:14:57.533Z,8.30
2019-03-12T13:17:01.410Z,8.30
2019-03-12T13:19:05.295Z,8.10
2019-03-12T13:21:09.250Z,8.10
2019-03-12T13:23:13.082Z,8.00
2019-03-12T13:25:18.088Z,8.00
2019-03-12T13:27:22.001Z,8.00
2019-03-12T13:29:25.861Z,8.00
2019-03-12T13:31:29.713Z,8.00
2019-03-12T13:33:33.608Z,7.90
2019-03-12T13:35:37.471Z,8.00
2019-03-12T13:37:41.415Z,8.00
2019-03-12T13:39:45.305Z,8.00
2019-03-12T13:41:49.220Z,8.00
2019-03-12T13:43:53.415Z,7.90
2019-03-12T13:45:57.283Z,7.90
2019-03-12T13:48:01.195Z,7.90
2019-03-12T13:50:07.881Z,7.90
2019-03-12T13:52:11.706Z,7.90
2019-03-12T13:54:15.538Z,8.50
2019-03-12T13:56:19.394Z,9.10
2019-03-12T13:58:23.243Z,9.70
2019-03-12T14:00:28.419Z,10.00
2019-03-12T14:02:32.279Z,10.30
2019-03-12T14:04:36.112Z,10.40
2019-03-12T14:06:40.000Z,10.10
2019-03-12T14:08:43.872Z,9.90
2019-03-12T14:10:47.714Z,9.60
2019-03-12T14:12:52.871Z,9.50
2019-03-12T14:14:56.768Z,9.40
2019-03-12T14:17:00.552Z,9.30
2019-03-12T14:19:04.631Z,9.30
2019-03-12T14:21:11.248Z,9.40
2019-03-12T14:23:23.707Z,9.40
2019-03-12T14:25:27.567Z,9.50
2019-03-12T14:27:31.439Z,9.50
2019-03-12T14:29:35.270Z,9.50
2019-03-12T14:31:39.127Z,9.60
2019-03-12T14:33:43.038Z,9.50
2019-03-12T14:35:51.817Z,9.20
2019-03-12T14:37:52.475Z,9.10
2019-03-12T14:39:56.393Z,9.10
2019-03-12T14:42:00.395Z,9.00
2019-03-12T14:44:04.263Z,8.90
2019-03-12T14:46:08.170Z,9.00
2019-03-12T14:48:49.490Z,9.10
2019-03-12T14:50:53.395Z,9.20
2019-03-12T14:53:21.369Z,9.30
2019-03-12T14:55:17.802Z,9.20
2019-03-12T14:57:21.711Z,9.10
2019-03-12T14:59:25.663Z,9.00
2019-03-12T15:01:29.492Z,9.00
2019-03-12T15:03:33.366Z,8.90
2019-03-12T15:05:37.247Z,8.90
2019-03-12T15:07:41.070Z,8.90
2019-03-12T15:09:44.979Z,8.80
2019-03-12T15:11:48.814Z,8.90
2019-03-12T15:13:52.687Z,8.90
2019-03-12T15:15:56.858Z,8.90
2019-03-12T15:18:00.704Z,8.80
2019-03-12T15:20:07.337Z,8.70
2019-03-12T15:22:11.208Z,8.80
2019-03-12T15:24:15.025Z,8.80
2019-03-12T15:26:18.890Z,8.80
2019-03-12T15:28:22.745Z,8.80
2019-03-12T15:30:28.454Z,8.90
2019-03-12T15:32:32.332Z,8.90
2019-03-12T15:34:36.150Z,8.90
2019-03-12T15:36:40.014Z,9.00
2019-03-12T15:38:43.895Z,8.90
2019-03-12T15:40:48.066Z,8.80
2019-03-12T15:42:51.926Z,8.70
2019-03-12T15:44:55.791Z,8.70
2019-03-12T15:46:59.667Z,8.70
2019-03-12T15:49:03.546Z,8.60
2019-03-12T15:51:07.753Z,8.60
2019-03-12T15:53:11.601Z,8.60
2019-03-12T15:55:15.466Z,8.60
2019-03-12T15:57:21.068Z,8.70
2019-03-12T15:59:24.898Z,8.60
2019-03-12T16:01:28.767Z,8.60
2019-03-12T16:03:32.662Z,8.60
2019-03-12T16:05:36.530Z,8.60
2019-03-12T16:07:40.412Z,8.50
2019-03-12T16:09:44.281Z,8.40
2019-03-12T16:11:48.113Z,8.40
2019-03-12T16:13:52.007Z,8.40
2019-03-12T16:15:55.874Z,8.30
2019-03-12T16:17:59.702Z,8.30
2019-03-12T16:20:04.597Z,8.20
2019-03-12T16:22:08.433Z,8.20
2019-03-12T16:24:12.229Z,8.20
2019-03-12T16:26:17.003Z,8.20
2019-03-12T16:28:20.891Z,8.10
2019-03-12T16:30:24.730Z,8.10
2019-03-12T16:32:28.580Z,8.10
2019-03-12T16:34:32.478Z,8.00
2019-03-12T16:36:36.269Z,8.00
2019-03-12T16:38:40.113Z,7.80
2019-03-12T16:40:44.055Z,7.80
2019-03-12T16:42:47.906Z,7.80
2019-03-12T16:44:51.732Z,7.80
2019-03-12T16:46:55.654Z,7.80
2019-03-12T16:48:59.509Z,7.70
2019-03-12T16:51:03.347Z,7.70
2019-03-12T16:53:07.241Z,7.60
2019-03-12T16:55:13.203Z,7.50
2019-03-12T16:57:17.077Z,7.50
2019-03-12T16:59:20.912Z,7.40
2019-03-12T17:01:24.785Z,7.40
2019-03-12T17:03:28.683Z,7.30
2019-03-12T17:05:32.555Z,7.30
2019-03-12T17:07:36.415Z,7.20
2019-03-12T17:09:40.360Z,7.10
2019-03-12T17:11:44.394Z,7.00
2019-03-12T17:13:48.840Z,6.90
2019-03-12T17:15:54.966Z,6.80
2019-03-12T17:17:58.195Z,6.80
2019-03-12T17:20:01.998Z,6.80
2019-03-12T17:22:06.590Z,6.80
2019-03-12T17:24:10.477Z,6.70
2019-03-12T17:26:14.364Z,6.70
2019-03-12T17:28:18.240Z,6.70
2019-03-12T17:30:22.981Z,6.50
2019-03-12T17:32:26.837Z,6.50
2019-03-12T17:34:35.890Z,6.40
2019-03-12T17:36:36.174Z,6.40
2019-03-12T17:38:46.505Z,6.30
2019-03-12T17:40:45.538Z,6.30
2019-03-12T17:42:49.567Z,6.30
2019-03-12T17:44:53.575Z,6.30
2019-03-12T17:46:57.674Z,6.20
2019-03-12T17:49:01.519Z,6.20
2019-03-12T17:51:05.484Z,6.10
2019-03-12T17:53:09.475Z,6.10
2019-03-12T17:55:14.610Z,6.10
2019-03-12T17:57:18.633Z,6.00
2019-03-12T17:59:22.484Z,6.00
2019-03-12T18:01:30.003Z,5.80
2019-03-12T18:03:31.961Z,5.80
2019-03-12T18:05:35.831Z,5.80
2019-03-12T18:07:39.791Z,5.90
2019-03-12T18:09:43.679Z,5.80
2019-03-12T18:11:47.548Z,5.70
2019-03-12T18:13:51.701Z,5.70
2019-03-12T18:15:55.827Z,5.70
2019-03-12T18:17:59.733Z,5.70
2019-03-12T18:20:04.600Z,5.60
2019-03-12T18:22:08.546Z,5.60
2019-03-12T18:24:12.471Z,5.60
2019-03-12T18:26:16.523Z,5.70
2019-03-12T18:28:20.436Z,5.50
2019-03-12T18:30:24.434Z,5.50
2019-03-12T18:32:28.380Z,5.50
2019-03-12T18:34:32.304Z,5.40
2019-03-12T18:36:36.313Z,5.40
2019-03-12T18:38:40.176Z,5.50
2019-03-12T18:40:44.122Z,5.40
2019-03-12T18:42:48.266Z,5.40
2019-03-12T18:44:52.162Z,5.40
2019-03-12T18:46:56.011Z,5.30
2019-03-12T18:48:59.895Z,5.40
2019-03-12T18:51:03.877Z,5.30
2019-03-12T18:53:07.726Z,5.30
2019-03-12T18:55:32.795Z,5.30
2019-03-12T18:57:36.682Z,5.30
2019-03-12T18:59:40.547Z,5.30
2019-03-12T19:01:44.378Z,5.30
2019-03-12T19:03:48.271Z,5.20
2019-03-12T19:05:52.087Z,5.30
2019-03-12T19:07:56.008Z,5.20
2019-03-12T19:09:59.842Z,5.20
2019-03-12T19:12:03.779Z,5.10
2019-03-12T19:14:07.636Z,5.10
2019-03-12T19:16:11.494Z,5.10
2019-03-12T19:18:15.374Z,5.10
2019-03-12T19:20:19.946Z,5.10
2019-03-12T19:22:23.818Z,5.00
2019-03-12T19:24:27.782Z,5.00
2019-03-12T19:26:31.747Z,5.00
2019-03-12T19:28:35.756Z,5.00
2019-03-12T19:30:39.666Z,5.00
2019-03-12T19:32:54.113Z,4.90
2019-03-12T19:34:58.024Z,5.00
2019-03-12T19:37:01.940Z,4.90
2019-03-12T19:39:07.878Z,4.90
2019-03-12T19:41:11.876Z,4.90
2019-03-12T19:43:15.793Z,4.90
2019-03-12T19:45:19.737Z,4.90
2019-03-12T19:47:23.726Z,4.80
2019-03-12T19:49:28.124Z,4.90
2019-03-12T19:51:32.029Z,4.90
2019-03-12T19:53:36.032Z,4.80
2019-03-12T19:55:58.042Z,4.80
2019-03-12T19:58:01.947Z,4.80
2019-03-12T20:00:08.843Z,4.80
2019-03-12T20:02:16.373Z,4.70
2019-03-12T20:04:19.215Z,4.70
2019-03-12T20:06:23.348Z,4.70
2019-03-12T20:08:27.436Z,4.70
2019-03-12T20:10:53.896Z,4.70
2019-03-12T20:13:34.035Z,4.70
2019-03-12T20:16:11.315Z,4.70
2019-03-12T20:18:36.106Z,4.70
2019-03-12T20:20:52.043Z,4.70
2019-03-12T20:23:21.641Z,4.70
2019-03-12T20:25:48.485Z,4.70
2019-03-12T20:28:15.304Z,4.70
2019-03-12T20:30:25.236Z,4.60
2019-03-12T20:33:08.254Z,4.60
2019-03-12T20:35:34.667Z,4.70
2019-03-12T20:38:15.192Z,4.70
2019-03-12T20:40:44.963Z,4.60
2019-03-12T20:43:09.919Z,4.60
2019-03-12T20:45:50.017Z,4.60
2019-03-12T20:48:21.099Z,4.60
2019-03-12T20:50:30.618Z,4.60
2019-03-12T20:53:00.408Z,4.60
2019-03-12T20:55:40.769Z,4.60
2019-03-12T20:58:13.480Z,4.70
2019-03-12T21:00:33.317Z,4.60
2019-03-12T21:02:51.831Z,4.50
2019-03-12T21:05:10.863Z,4.50
2019-03-12T21:07:32.582Z,4.50
2019-03-12T21:09:56.173Z,4.50
2019-03-12T21:12:17.577Z,4.40
2019-03-12T21:14:27.182Z,4.40
2019-03-12T21:17:04.652Z,4.40
2019-03-12T21:19:36.639Z,4.40
2019-03-12T21:22:03.703Z,4.30
2019-03-12T21:24:15.922Z,4.40
2019-03-12T21:26:22.785Z,4.30
2019-03-12T21:28:41.700Z,4.40
2019-03-12T21:30:45.970Z,4.40
2019-03-12T21:32:49.941Z,4.40
2019-03-12T21:34:53.842Z,4.40
2019-03-12T21:36:57.726Z,4.40
2019-03-12T21:39:01.758Z,4.40
2019-03-12T21:41:05.660Z,4.40
2019-03-12T21:43:09.517Z,4.40
2019-03-12T21:45:13.719Z,4.40
2019-03-12T21:47:18.195Z,4.40
2019-03-12T21:49:22.106Z,4.40
2019-03-12T21:51:26.518Z,4.40
2019-03-12T21:53:30.524Z,4.40
2019-03-12T21:55:37.549Z,4.30
2019-03-12T21:57:40.167Z,4.30
2019-03-12T21:59:44.137Z,4.30
2019-03-12T22:01:48.975Z,4.30
2019-03-12T22:03:52.958Z,4.40
2019-03-12T22:05:57.071Z,4.30
2019-03-12T22:08:01.041Z,4.30
2019-03-12T22:10:07.601Z,4.30
2019-03-12T22:12:11.539Z,4.30
2019-03-12T22:14:15.518Z,4.40
2019-03-12T22:16:19.614Z,4.40
2019-03-12T22:18:23.576Z,4.40
2019-03-12T22:20:27.543Z,4.50
2019-03-12T22:22:33.062Z,4.50
2019-03-12T22:24:36.971Z,4.50
2019-03-12T22:26:41.001Z,4.50
2019-03-12T22:28:45.007Z,4.50
2019-03-12T22:30:48.998Z,4.50
2019-03-12T22:32:53.004Z,4.60
2019-03-12T22:34:56.929Z,4.60
2019-03-12T22:37:00.779Z,4.50
2019-03-12T22:39:06.174Z,4.50
2019-03-12T22:41:10.174Z,4.50
2019-03-12T22:43:14.060Z,4.50
2019-03-12T22:45:17.975Z,4.50
2019-03-12T22:47:21.806Z,4.50
2019-03-12T22:49:25.711Z,4.50
2019-03-12T22:51:29.579Z,4.60
2019-03-12T22:53:33.733Z,4.60
2019-03-12T22:55:37.616Z,4.60
2019-03-12T22:57:41.622Z,4.60
2019-03-12T22:59:45.528Z,4.60
2019-03-12T23:01:49.374Z,4.60
2019-03-12T23:03:53.291Z,4.60
2019-03-12T23:05:57.346Z,4.60
2019-03-12T23:08:01.237Z,4.70
2019-03-12T23:10:08.158Z,4.70
2019-03-12T23:12:12.134Z,4.70
2019-03-12T23:14:15.981Z,4.70
2019-03-12T23:16:19.944Z,4.80
2019-03-12T23:18:23.850Z,4.80
2019-03-12T23:20:27.863Z,4.80
2019-03-12T23:22:31.865Z,4.80
2019-03-12T23:24:35.817Z,4.80
2019-03-12T23:26:39.778Z,4.80
2019-03-12T23:28:43.739Z,4.80
2019-03-12T23:30:47.901Z,4.90
2019-03-12T23:32:52.107Z,4.80
2019-03-12T23:34:56.133Z,4.90
2019-03-12T23:37:00.167Z,4.80
2019-03-12T23:39:05.563Z,4.90
2019-03-12T23:41:09.390Z,4.90
2019-03-12T23:43:13.284Z,4.90
2019-03-12T23:45:17.918Z,5.00
2019-03-12T23:47:21.837Z,5.00
2019-03-12T23:49:26.117Z,5.00
2019-03-12T23:51:30.026Z,4.90
2019-03-12T23:53:34.028Z,5.00
2019-03-12T23:55:37.906Z,5.00
2019-03-12T23:57:41.918Z,5.00
2019-03-12T23:59:45.762Z,5.10
